createdAt,value
2023-02-11T00:03:57.441Z,76.52
2023-02-11T00:10:00.930Z,76.49
2023-02-11T00:16:04.544Z,76.45
2023-02-11T00:22:10.835Z,76.55
2023-02-11T00:28:14.244Z,76.62
2023-02-11T00:34:17.787Z,76.59
2023-02-11T00:40:21.208Z,76.77
2023-02-11T00:46:24.985Z,76.70
2023-02-11T00:52:28.444Z,76.85
2023-02-11T00:58:32.105Z,76.99
2023-02-11T01:04:35.622Z,76.96
2023-02-11T01:10:35.119Z,76.97
2023-02-11T01:16:38.553Z,77.06
2023-02-11T01:22:40.646Z,77.24
2023-02-11T01:28:38.053Z,77.56
2023-02-11T01:34:41.448Z,77.97
2023-02-11T01:40:44.996Z,77.88
2023-02-11T01:46:39.827Z,77.82
2023-02-11T01:52:43.284Z,77.89
2023-02-11T01:58:39.808Z,77.79
2023-02-11T02:04:43.209Z,77.87
2023-02-11T02:10:46.744Z,77.94
2023-02-11T02:16:52.816Z,78.26
2023-02-11T02:23:01.922Z,78.36
2023-02-11T02:29:12.846Z,78.07
2023-02-11T02:35:31.310Z,78.09
2023-02-11T02:41:37.678Z,78.16
2023-02-11T02:47:39.579Z,78.09
2023-02-11T02:53:42.950Z,78.36
2023-02-11T02:59:52.030Z,78.27
2023-02-11T03:05:58.535Z,78.40
2023-02-11T03:12:02.001Z,78.43
2023-02-11T03:18:05.411Z,78.74
2023-02-11T03:24:17.682Z,78.62
2023-02-11T03:30:36.615Z,78.66
2023-02-11T03:36:43.056Z,78.80
2023-02-11T03:42:46.541Z,79.10
2023-02-11T03:48:50.081Z,79.12
2023-02-11T03:54:53.590Z,79.21
2023-02-11T04:00:56.288Z,79.46
2023-02-11T04:06:58.527Z,79.47
2023-02-11T04:13:01.893Z,79.76
2023-02-11T04:19:05.365Z,79.91
2023-02-11T04:25:08.755Z,80.15
2023-02-11T04:31:12.347Z,80.39
2023-02-11T04:37:15.722Z,80.53
2023-02-11T04:43:19.388Z,80.82
2023-02-11T04:49:22.774Z,81.28
2023-02-11T04:55:26.715Z,81.06
2023-02-11T05:01:30.103Z,81.51
2023-02-11T05:07:23.379Z,81.79
2023-02-11T05:13:25.386Z,82.19
2023-02-11T05:19:29.275Z,82.84
2023-02-11T05:25:21.538Z,83.24
2023-02-11T05:31:25.092Z,83.53
2023-02-11T05:37:21.135Z,83.44
2023-02-11T05:43:24.677Z,83.77
2023-02-11T05:49:28.089Z,84.01
2023-02-11T05:55:30.211Z,84.60
2023-02-11T06:01:33.625Z,84.67
2023-02-11T06:07:37.026Z,85.39
2023-02-11T06:13:39.263Z,85.80
2023-02-11T06:19:37.997Z,85.91
2023-02-11T06:25:41.584Z,85.84
2023-02-11T06:31:45.216Z,86.34
2023-02-11T06:37:48.827Z,86.53
2023-02-11T06:43:52.295Z,86.91
2023-02-11T06:49:55.806Z,87.15
2023-02-11T06:55:59.248Z,87.66
2023-02-11T07:01:55.975Z,88.11
2023-02-11T07:07:59.575Z,88.80
2023-02-11T07:14:03.181Z,88.97
2023-02-11T07:20:06.811Z,88.99
2023-02-11T07:26:00.238Z,89.29
2023-02-11T07:32:06.856Z,89.72
2023-02-11T07:38:10.736Z,90.04
2023-02-11T07:44:12.796Z,89.88
2023-02-11T07:50:16.191Z,90.03
2023-02-11T07:56:19.620Z,90.24
2023-02-11T08:02:23.210Z,90.24
2023-02-11T08:08:26.674Z,90.31
2023-02-11T08:14:28.559Z,90.41
2023-02-11T08:20:31.957Z,90.59
2023-02-11T08:26:35.662Z,90.86
2023-02-11T08:32:39.174Z,90.52
2023-02-11T08:38:42.580Z,90.77
2023-02-11T08:44:46.182Z,91.20
2023-02-11T08:50:49.647Z,90.90
2023-02-11T08:56:45.850Z,91.27
2023-02-11T09:02:49.241Z,91.21
2023-02-11T09:08:52.867Z,91.47
2023-02-11T09:14:56.421Z,91.95
2023-02-11T09:20:59.855Z,92.09
2023-02-11T09:27:06.019Z,92.15
2023-02-11T09:33:09.706Z,91.54
2023-02-11T09:39:13.121Z,91.70
2023-02-11T09:45:19.454Z,91.57
2023-02-11T09:51:28.930Z,91.57
2023-02-11T09:57:32.516Z,91.12
2023-02-11T10:04:00.659Z,91.71
2023-02-11T10:10:19.701Z,91.77
2023-02-11T10:16:26.440Z,90.73
2023-02-11T10:22:47.802Z,90.87
2023-02-11T10:28:54.173Z,91.50
2023-02-11T10:35:03.492Z,91.71
2023-02-11T10:41:07.004Z,92.06
2023-02-11T10:47:13.417Z,92.70
2023-02-11T10:53:25.928Z,93.23
2023-02-11T10:59:26.057Z,93.74
2023-02-11T11:05:38.378Z,94.00
2023-02-11T11:11:44.919Z,94.54
2023-02-11T11:17:48.976Z,94.62
2023-02-11T11:23:52.379Z,94.85
2023-02-11T11:29:55.937Z,95.33
2023-02-11T11:36:02.409Z,95.30
2023-02-11T11:42:21.434Z,95.66
2023-02-11T11:48:40.052Z,95.64
2023-02-11T11:54:49.470Z,96.16
2023-02-11T12:00:55.683Z,96.22
2023-02-11T12:06:59.221Z,96.36
2023-02-11T12:13:24.165Z,96.56
2023-02-11T12:20:01.148Z,96.79
2023-02-11T12:26:20.004Z,96.65
2023-02-11T12:32:32.648Z,97.35
2023-02-11T12:38:14.226Z,96.84
2023-02-11T12:44:29.230Z,96.85
2023-02-11T12:50:32.876Z,96.98
2023-02-11T12:56:36.449Z,96.60
2023-02-11T13:09:11.870Z,96.95
2023-02-11T13:15:07.438Z,96.95
2023-02-11T13:21:13.577Z,96.61
2023-02-11T13:27:26.134Z,96.75
2023-02-11T13:33:34.793Z,96.70
2023-02-11T13:39:41.199Z,96.85
2023-02-11T13:45:45.303Z,96.86
2023-02-11T13:51:57.444Z,97.19
2023-02-11T13:58:07.796Z,97.00
2023-02-11T14:04:09.727Z,97.32
2023-02-11T14:10:14.667Z,97.42
2023-02-11T14:16:31.610Z,97.66
2023-02-11T14:22:43.994Z,97.27
2023-02-11T14:28:48.651Z,97.44
2023-02-11T14:34:51.646Z,97.79
2023-02-11T14:40:53.712Z,98.35
2023-02-11T14:46:58.154Z,98.18
2023-02-11T14:52:52.956Z,98.07
2023-02-11T14:58:34.363Z,98.44
2023-02-11T15:04:01.439Z,98.44
2023-02-11T15:09:39.116Z,99.02
2023-02-11T15:15:32.451Z,99.03
2023-02-11T15:20:51.227Z,99.21
2023-02-11T15:26:46.392Z,99.29
2023-02-11T15:32:50.212Z,99.30
2023-02-11T15:38:43.139Z,99.61
2023-02-11T15:44:43.835Z,99.67
2023-02-11T15:50:34.080Z,99.78
2023-02-11T15:56:44.735Z,99.63
2023-02-11T16:02:25.532Z,99.93
2023-02-11T16:08:35.618Z,100.00
2023-02-11T16:14:39.493Z,99.97
2023-02-11T16:20:44.298Z,100.00
2023-02-11T16:26:43.892Z,99.99
2023-02-11T16:32:40.753Z,99.99
2023-02-11T16:38:35.770Z,100.00
2023-02-11T16:44:17.770Z,100.00
2023-02-11T16:50:21.405Z,100.00
2023-02-11T16:56:07.347Z,100.00
2023-02-11T17:02:11.826Z,100.00
2023-02-11T17:07:33.615Z,100.00
2023-02-11T17:13:37.164Z,100.00
2023-02-11T17:19:23.640Z,100.00
2023-02-11T17:25:16.895Z,100.00
2023-02-11T17:31:21.524Z,100.00
2023-02-11T17:37:29.688Z,100.00
2023-02-11T17:43:33.157Z,100.00
2023-02-11T17:49:23.739Z,100.00
2023-02-11T17:55:27.910Z,100.00
2023-02-11T18:01:33.457Z,100.00
2023-02-11T18:07:37.274Z,100.00
2023-02-11T18:13:40.676Z,100.00
2023-02-11T18:19:30.491Z,100.00
2023-02-11T18:25:17.382Z,100.00
2023-02-11T18:31:04.300Z,100.00
2023-02-11T18:36:37.247Z,100.00
2023-02-11T18:42:09.845Z,100.00
2023-02-11T18:48:06.219Z,100.00
2023-02-11T18:54:09.401Z,100.00
2023-02-11T19:00:04.005Z,100.00
2023-02-11T19:06:06.695Z,100.00
2023-02-11T19:11:50.045Z,100.00
2023-02-11T19:17:26.336Z,100.00
2023-02-11T19:23:31.605Z,100.00
2023-02-11T19:28:55.859Z,100.00
2023-02-11T19:34:42.938Z,100.00
2023-02-11T19:40:24.136Z,100.00
2023-02-11T19:46:17.428Z,100.00
2023-02-11T19:51:43.633Z,100.00
2023-02-11T19:57:02.679Z,100.00
2023-02-11T20:03:07.312Z,100.00
2023-02-11T20:08:20.094Z,100.00
2023-02-11T20:14:05.980Z,100.00
2023-02-11T20:19:24.760Z,100.00
2023-02-11T20:25:11.878Z,100.00
2023-02-11T20:30:42.550Z,100.00
2023-02-11T20:35:48.517Z,100.00
2023-02-11T20:41:15.718Z,100.00
2023-02-11T20:46:45.791Z,100.00
2023-02-11T20:52:32.192Z,100.00
2023-02-11T20:58:21.100Z,100.00
2023-02-11T21:03:35.296Z,100.00
2023-02-11T21:08:51.285Z,100.00
2023-02-11T21:13:53.872Z,100.00
2023-02-11T21:18:56.898Z,100.00
2023-02-11T21:24:16.730Z,100.00
2023-02-11T21:29:36.696Z,100.00
2023-02-11T21:35:15.350Z,100.00
2023-02-11T21:40:27.247Z,100.00
2023-02-11T21:46:31.943Z,100.00
2023-02-11T21:52:36.311Z,100.00
2023-02-11T21:58:23.918Z,100.00
2023-02-11T22:04:27.340Z,100.00
2023-02-11T22:10:21.630Z,100.00
2023-02-11T22:16:25.410Z,100.00
2023-02-11T22:22:27.704Z,100.00
2023-02-11T22:28:31.204Z,100.00
2023-02-11T22:34:25.557Z,100.00
2023-02-11T22:40:29.214Z,100.00
2023-02-11T22:46:32.630Z,100.00
2023-02-11T22:52:36.148Z,100.00
2023-02-11T22:58:39.558Z,100.00
2023-02-11T23:04:43.063Z,100.00
2023-02-11T23:10:46.676Z,100.00
2023-02-11T23:16:41.800Z,100.00
2023-02-11T23:22:45.312Z,100.00
2023-02-11T23:28:48.751Z,100.00
2023-02-11T23:34:43.565Z,100.00
2023-02-11T23:40:41.836Z,100.00
2023-02-11T23:46:45.261Z,100.00
2023-02-11T23:52:48.711Z,99.98
2023-02-11T23:58:51.266Z,100.00
